LPA weather

Gran Canaria Airport
Gran Canaria Island, Canary Islands, Spain

Public forecast

Using degrees Celsius for public forecast. Weather courtesy of forecast.io.

METAR (pilot weather report)

Retrieved 2018/10/23 11:30 UTC (17 minutes ago):

GCLP 231130Z 16013KT 9999 FEW030 SCT040 24/20 Q1019 NOSIG

TAF (pilot weather forecast)

Retrieved 2018/10/23 09:41 UTC (2 hours ago):

TAF GCLP 230800Z 2309/2409 18008KT 9999 BKN030 TX26/2314Z TN19/2405Z BECMG 2317/2319 31010KT PROB30 TEMPO 2318/2403 4500 RA FEW030TCU